TimeMST,TemperatureF,Dew PointF,Humidity,Sea Level PressureIn,VisibilityMPH,Wind Direction,Wind SpeedMPH,Gust SpeedMPH,PrecipitationIn,Events,Conditions,WindDirDegrees,DateUTC
12:15 AM,9.0,5.9,87,30.00,10.0,WSW,4.6,-,N/A,,Clear,240,2013-01-05 07:15:00
12:35 AM,9.0,5.7,87,29.99,10.0,Calm,Calm,-,N/A,,Clear,0,2013-01-05 07:35:00
12:55 AM,17.8,12.2,79,29.99,10.0,West,3.5,16.1,N/A,,Clear,260,2013-01-05 07:55:00
1:15 AM,17.1,10.9,77,29.98,10.0,WSW,5.8,-,N/A,,Clear,240,2013-01-05 08:15:00
1:35 AM,23.4,14.2,68,29.98,10.0,West,9.2,-,N/A,,Clear,260,2013-01-05 08:35:00
1:55 AM,21.2,13.3,72,29.99,10.0,WSW,5.8,-,N/A,,Clear,250,2013-01-05 08:55:00
2:15 AM,22.6,13.1,67,29.99,10.0,WNW,10.4,-,N/A,,Clear,290,2013-01-05 09:15:00
2:35 AM,20.1,12.0,71,30.00,10.0,West,8.1,-,N/A,,Clear,280,2013-01-05 09:35:00
2:55 AM,20.3,11.8,70,30.00,10.0,WNW,10.4,16.1,N/A,,Clear,300,2013-01-05 09:55:00
3:15 AM,20.3,11.8,70,30.00,10.0,NW,12.7,-,N/A,,Clear,320,2013-01-05 10:15:00
3:35 AM,19.9,11.3,69,30.00,10.0,NW,16.1,19.6,N/A,,Clear,320,2013-01-05 10:35:00
3:55 AM,19.9,11.3,69,30.00,10.0,NW,16.1,-,N/A,,Clear,320,2013-01-05 10:55:00
4:15 AM,19.8,11.3,70,30.01,10.0,NW,8.1,-,N/A,,Clear,310,2013-01-05 11:15:00
4:35 AM,19.2,11.1,71,30.02,10.0,WSW,4.6,-,N/A,,Clear,250,2013-01-05 11:35:00
4:55 AM,19.6,10.8,69,30.02,10.0,Calm,Calm,-,N/A,,Clear,0,2013-01-05 11:55:00
5:15 AM,19.4,10.6,69,30.03,10.0,WNW,8.1,-,N/A,,Clear,300,2013-01-05 12:15:00
5:35 AM,19.9,10.8,68,30.05,10.0,SW,3.5,-,N/A,,Clear,220,2013-01-05 12:35:00
5:55 AM,20.1,11.1,68,30.06,10.0,West,4.6,-,N/A,,Clear,260,2013-01-05 12:55:00
6:15 AM,20.1,11.1,68,30.07,10.0,WNW,6.9,-,N/A,,Clear,290,2013-01-05 13:15:00
6:35 AM,21.4,11.8,67,30.07,10.0,WNW,11.5,-,N/A,,Clear,300,2013-01-05 13:35:00
6:55 AM,21.2,12.0,68,30.07,10.0,WNW,9.2,-,N/A,,Clear,300,2013-01-05 13:55:00
7:15 AM,21.9,12.4,67,30.09,10.0,NW,16.1,-,N/A,,Clear,310,2013-01-05 14:15:00
7:35 AM,22.6,12.9,66,30.09,10.0,NW,18.4,24.2,N/A,,Clear,320,2013-01-05 14:35:00
7:55 AM,23.5,13.6,66,30.11,10.0,WNW,9.2,-,N/A,,Clear,300,2013-01-05 14:55:00
8:15 AM,24.8,14.2,64,30.12,10.0,WNW,12.7,-,N/A,,Clear,300,2013-01-05 15:15:00
8:55 AM,25.5,16.2,68,30.12,10.0,WSW,12.7,-,N/A,,Clear,250,2013-01-05 15:55:00
9:15 AM,27.3,16.9,65,30.13,10.0,WNW,3.5,-,N/A,,Clear,300,2013-01-05 16:15:00
9:55 AM,29.1,18.3,64,30.13,10.0,NNW,24.2,-,N/A,,Clear,330,2013-01-05 16:55:00
10:15 AM,31.1,18.9,61,30.15,10.0,NNW,28.8,34.5,N/A,,Clear,330,2013-01-05 17:15:00
10:55 AM,32.9,20.5,60,30.16,10.0,NW,20.7,26.5,N/A,,Clear,320,2013-01-05 17:55:00
11:15 AM,34.0,21.4,60,30.16,10.0,NW,18.4,-,N/A,,Clear,310,2013-01-05 18:15:00
11:35 AM,35.2,21.9,58,30.15,10.0,NW,16.1,-,N/A,,Clear,310,2013-01-05 18:35:00
11:55 AM,37.0,23.4,58,30.15,10.0,WNW,20.7,25.3,N/A,,Clear,300,2013-01-05 18:55:00
12:15 PM,37.9,24.4,58,30.14,10.0,WNW,17.3,26.5,N/A,,Clear,290,2013-01-05 19:15:00
12:35 PM,38.7,25.0,58,30.15,10.0,NW,12.7,-,N/A,,Clear,310,2013-01-05 19:35:00
12:55 PM,38.5,24.8,58,30.14,10.0,NW,18.4,-,N/A,,Clear,320,2013-01-05 19:55:00
1:15 PM,39.2,25.0,57,30.15,10.0,NW,17.3,23.0,N/A,,Clear,310,2013-01-05 20:15:00
1:35 PM,39.4,24.6,56,30.15,10.0,NW,17.3,25.3,N/A,,Clear,310,2013-01-05 20:35:00
1:55 PM,38.8,24.8,57,30.15,10.0,NW,16.1,-,N/A,,Clear,310,2013-01-05 20:55:00
2:15 PM,38.8,24.8,57,30.16,10.0,NW,16.1,-,N/A,,Clear,310,2013-01-05 21:15:00
2:35 PM,39.2,25.2,57,30.16,10.0,NW,15.0,-,N/A,,Clear,310,2013-01-05 21:35:00
2:55 PM,39.2,25.3,58,30.17,10.0,WNW,16.1,24.2,N/A,,Clear,300,2013-01-05 21:55:00
3:15 PM,38.5,26.1,61,30.17,10.0,NW,13.8,-,N/A,,Clear,310,2013-01-05 22:15:00
4:15 PM,36.3,26.1,66,30.19,10.0,NW,12.7,-,N/A,,Clear,310,2013-01-05 23:15:00
4:35 PM,34.3,25.7,71,30.20,10.0,NW,9.2,-,N/A,,Clear,310,2013-01-05 23:35:00
4:55 PM,32.0,24.4,74,30.21,10.0,NW,6.9,-,N/A,,Clear,320,2013-01-05 23:55:00
5:15 PM,29.7,23.0,76,30.22,10.0,NW,8.1,-,N/A,,Clear,310,2013-01-06 00:15:00
5:35 PM,29.5,22.5,75,30.22,10.0,NW,6.9,-,N/A,,Clear,320,2013-01-06 00:35:00
5:55 PM,29.3,22.1,75,30.23,10.0,Calm,Calm,-,N/A,,Clear,0,2013-01-06 00:55:00
6:15 PM,29.3,22.1,75,30.23,10.0,Calm,Calm,-,N/A,,Clear,0,2013-01-06 01:15:00
6:35 PM,27.5,20.8,76,30.24,10.0,West,3.5,-,N/A,,Clear,280,2013-01-06 01:35:00
6:55 PM,27.5,21.0,77,30.25,10.0,NW,3.5,-,N/A,,Clear,320,2013-01-06 01:55:00
7:15 PM,25.7,19.9,79,30.26,10.0,SW,3.5,-,N/A,,Clear,230,2013-01-06 02:15:00
7:35 PM,27.3,20.3,75,30.25,10.0,WSW,8.1,-,N/A,,Clear,240,2013-01-06 02:35:00
7:55 PM,25.3,19.6,79,30.25,10.0,West,8.1,-,N/A,,Clear,260,2013-01-06 02:55:00
8:15 PM,24.3,18.3,78,30.25,10.0,West,10.4,-,N/A,,Clear,280,2013-01-06 03:15:00
8:35 PM,22.5,18.0,83,30.25,10.0,West,3.5,-,N/A,,Clear,270,2013-01-06 03:35:00
8:55 PM,23.4,17.4,78,30.25,10.0,WNW,3.5,-,N/A,,Clear,290,2013-01-06 03:55:00
9:15 PM,22.1,16.3,79,30.27,10.0,SW,9.2,-,N/A,,Clear,220,2013-01-06 04:15:00
9:35 PM,22.1,17.1,81,30.27,10.0,WSW,6.9,-,N/A,,Clear,250,2013-01-06 04:35:00
9:55 PM,22.6,17.4,80,30.27,10.0,West,6.9,-,N/A,,Clear,260,2013-01-06 04:55:00
10:15 PM,21.4,16.7,82,30.27,10.0,WNW,6.9,-,N/A,,Clear,290,2013-01-06 05:15:00
10:35 PM,20.7,15.4,80,30.27,10.0,NW,6.9,-,N/A,,Clear,310,2013-01-06 05:35:00
10:55 PM,22.5,16.9,79,30.27,10.0,WNW,4.6,-,N/A,,Clear,290,2013-01-06 05:55:00
11:15 PM,23.4,16.3,75,30.26,10.0,WNW,9.2,-,N/A,,Clear,300,2013-01-06 06:15:00
11:35 PM,23.2,16.5,76,30.26,10.0,West,4.6,-,N/A,,Clear,260,2013-01-06 06:35:00
11:55 PM,23.2,15.6,73,30.25,10.0,NW,11.5,-,N/A,,Clear,320,2013-01-06 06:55:00